Archival Weather

Chicago O'Hare International

Chicago, Illinois (KORD)

Report from: Wednesday, February 16, 2022 4:51 AM CST
Current time: Saturday, February 4, 2023 10:21 PM CST

Current weather
Weather history
Weather forecast

Temperature7.2°C (45.0°F)
Wind chill3.1°C (37.6°F)
Dew point0.0°C (32.0°F)
Winds 15 kts (7.7 m/s, 17.3 mph) South (190°)
Wind gusts 25 kts (12.9 m/s, 28.8 mph)
Visibility10 mi. (16.1 km)
Clouds Ceiling: Overcast 25,000 ft. (7,620 m)
Altimeter29.84 in.Hg (1010 mB)
Relative humidity60 %
Density altitude-751 ft. (-229 m)
Sea-level pressure101.1 kPa (1011 mB, 29.85 in.Hg)
Remarks Automated weather observing station with precipitation discriminator
Flight conditions Visual Meteorological Conditions
Raw dataKORD 161051Z 19015G25KT 10SM OVC250 07/00 A2984 RMK AO2 SLP108 T00720000
An unhandled exception has occurred. See browser dev tools for details. Reload 🗙